Time;durP1;ratioP1;P1;durP2;ratioP2;P2;SDS_P1;SDS_P2;PMS_P1;PMS_P2;Temp;Humidity;BMP_temperature;BMP_pressure;BME280_temperature;BME280_humidity;BME280_pressure;Samples;Min_cycle;Max_cycle;Signal;HPM_P1;HPM_P2
2022/11/01 00:01:49;;;;;;;7.30;4.30;;;13.30;99.90;;;;;;4968707;28;20757;-74
2022/11/01 00:04:14;;;;;;;5.90;3.80;;;13.30;99.90;;;;;;4957496;28;20413;-74
2022/11/01 00:06:40;;;;;;;4.95;3.80;;;13.30;99.90;;;;;;4970999;28;20404;-74
2022/11/01 00:09:06;;;;;;;5.90;3.70;;;13.30;99.90;;;;;;4974334;28;20958;-74
2022/11/01 00:11:31;;;;;;;4.33;3.60;;;13.30;99.90;;;;;;4972632;28;20396;-74
2022/11/01 00:13:57;;;;;;;6.40;3.83;;;13.30;99.90;;;;;;4967544;28;20403;-74
2022/11/01 00:16:23;;;;;;;8.20;4.13;;;13.30;99.90;;;;;;4973715;28;20464;-74
2022/11/01 00:18:49;;;;;;;7.18;4.10;;;13.30;99.90;;;;;;4973869;28;20435;-74
2022/11/01 00:21:15;;;;;;;4.00;3.50;;;13.30;99.90;;;;;;4973939;28;20393;-74
2022/11/01 00:23:41;;;;;;;6.03;4.25;;;13.40;99.90;;;;;;4973570;28;20392;-75
2022/11/01 00:26:08;;;;;;;6.70;3.72;;;13.40;99.90;;;;;;4972425;28;20882;-74
2022/11/01 00:28:34;;;;;;;5.47;3.53;;;13.40;99.90;;;;;;4965610;28;20781;-74
2022/11/01 00:31:00;;;;;;;6.28;4.00;;;13.40;99.90;;;;;;4970467;28;20476;-74
2022/11/01 00:33:26;;;;;;;4.53;3.45;;;13.60;99.90;;;;;;4966069;28;20449;-74
2022/11/01 00:35:51;;;;;;;6.18;4.00;;;13.70;99.90;;;;;;4973468;28;20491;-74
2022/11/01 00:38:17;;;;;;;5.13;4.03;;;13.70;99.90;;;;;;4973474;28;20863;-75
2022/11/01 00:40:44;;;;;;;6.50;3.40;;;13.70;99.90;;;;;;4973592;28;20391;-74
2022/11/01 00:43:10;;;;;;;6.33;3.47;;;13.60;99.90;;;;;;4963505;28;20468;-75
2022/11/01 00:45:36;;;;;;;5.93;4.25;;;13.80;99.90;;;;;;4971004;28;20929;-74
2022/11/01 00:48:04;;;;;;;6.07;3.90;;;13.80;99.90;;;;;;4972936;28;20492;-74
2022/11/01 00:50:30;;;;;;;8.40;3.50;;;13.80;99.90;;;;;;4973000;28;20393;-74
2022/11/01 00:52:55;;;;;;;6.17;3.60;;;13.70;99.90;;;;;;4972966;28;20392;-74
2022/11/01 00:55:21;;;;;;;4.70;3.60;;;13.80;99.90;;;;;;4970991;28;20772;-74
2022/11/01 00:57:46;;;;;;;4.65;3.10;;;13.70;99.90;;;;;;4973051;28;20414;-75
2022/11/01 01:00:14;;;;;;;5.63;4.00;;;13.50;99.90;;;;;;4973084;28;20458;-74
2022/11/01 01:02:40;;;;;;;8.27;3.88;;;13.30;99.90;;;;;;4972911;28;20469;-74
2022/11/01 01:05:06;;;;;;;8.20;3.95;;;13.30;99.90;;;;;;4971842;28;20420;-74
2022/11/01 01:07:32;;;;;;;5.73;3.97;;;13.50;99.90;;;;;;4971740;28;20770;-74
2022/11/01 01:09:57;;;;;;;5.23;3.70;;;13.60;99.90;;;;;;4973372;28;20384;-74
2022/11/01 01:12:23;;;;;;;7.10;3.70;;;13.60;99.90;;;;;;4973092;28;20392;-74
2022/11/01 01:14:48;;;;;;;6.10;4.20;;;13.60;99.90;;;;;;4972466;28;20391;-74
2022/11/01 01:17:14;;;;;;;5.70;3.90;;;13.60;99.90;;;;;;4972924;28;20412;-73
2022/11/01 01:19:40;;;;;;;6.50;3.87;;;13.50;99.90;;;;;;4972817;28;20479;-74
2022/11/01 01:22:05;;;;;;;8.17;4.80;;;13.50;99.90;;;;;;4972813;28;20443;-74
2022/11/01 01:24:32;;;;;;;7.40;4.10;;;13.50;99.90;;;;;;4972514;28;20391;-74
2022/11/01 01:26:57;;;;;;;9.07;4.50;;;13.50;99.90;;;;;;4972636;28;20399;-74
2022/11/01 01:29:23;;;;;;;8.50;4.20;;;13.50;99.90;;;;;;4972785;28;20400;-75
2022/11/01 01:31:50;;;;;;;7.25;3.90;;;13.50;99.90;;;;;;4972181;28;20483;-74
2022/11/01 01:34:16;;;;;;;7.82;4.80;;;13.50;99.90;;;;;;4972387;28;20392;-74
2022/11/01 01:36:41;;;;;;;6.05;4.22;;;13.40;99.90;;;;;;4972417;28;20392;-74
2022/11/01 01:39:07;;;;;;;5.22;4.07;;;13.40;99.90;;;;;;4972509;28;20381;-74
2022/11/01 01:44:45;;;;;;;5.53;4.30;;;13.30;99.90;;;;;;4972277;28;20731;-75
2022/11/01 01:47:20;;;;;;;7.68;4.20;;;13.30;99.90;;;;;;4972329;28;20388;-74
2022/11/01 01:49:49;;;;;;;5.80;3.28;;;13.40;99.90;;;;;;4972434;28;20499;-74
2022/11/01 01:52:15;;;;;;;8.27;3.90;;;13.30;99.90;;;;;;4972397;28;20396;-74
2022/11/01 01:54:41;;;;;;;8.85;4.57;;;13.40;99.90;;;;;;4972096;28;20411;-73
2022/11/01 01:57:07;;;;;;;9.63;4.15;;;13.70;99.90;;;;;;4971905;28;20906;-73
2022/11/01 01:59:33;;;;;;;6.97;3.72;;;14.20;99.90;;;;;;4970992;28;20428;-74
2022/11/01 02:01:59;;;;;;;7.77;4.17;;;14.80;99.90;;;;;;4972091;28;20814;-73
2022/11/01 02:04:32;;;;;;;8.20;3.30;;;15.20;99.90;;;;;;4971911;28;20388;-72
2022/11/01 02:06:59;;;;;;;7.85;4.10;;;15.40;99.90;;;;;;4971875;28;20427;-75
2022/11/01 02:09:25;;;;;;;6.70;3.60;;;15.50;99.90;;;;;;4971959;28;20451;-73
2022/11/01 02:11:51;;;;;;;8.63;4.03;;;15.80;99.90;;;;;;4971965;28;20400;-75
2022/11/01 02:14:17;;;;;;;7.57;3.37;;;15.80;99.90;;;;;;4971532;28;20388;-74
2022/11/01 02:16:58;;;;;;;9.83;4.30;;;15.80;99.90;;;;;;4971670;28;20439;-73
2022/11/01 02:19:45;;;;;;;6.27;3.33;;;15.90;99.90;;;;;;4971859;28;20570;-74
2022/11/01 02:22:23;;;;;;;6.50;3.38;;;15.60;99.90;;;;;;4971754;28;20428;-74
2022/11/01 02:24:49;;;;;;;9.25;3.90;;;15.70;99.90;;;;;;4971787;28;20412;-74
2022/11/01 02:27:27;;;;;;;8.20;3.80;;;15.50;99.90;;;;;;4971440;28;20815;-74
2022/11/01 02:29:58;;;;;;;5.45;3.75;;;15.40;99.90;;;;;;4971586;28;20388;-74
2022/11/01 02:32:30;;;;;;;6.43;4.03;;;15.40;99.90;;;;;;4971515;28;20384;-74
2022/11/01 02:34:55;;;;;;;6.70;3.20;;;15.60;99.90;;;;;;4971532;28;20400;-75
2022/11/01 02:37:38;;;;;;;6.20;3.30;;;15.80;99.90;;;;;;4969703;28;20786;-73
2022/11/01 02:40:15;;;;;;;7.60;3.75;;;15.60;99.90;;;;;;4971540;28;20442;-74
2022/11/01 02:42:45;;;;;;;5.67;3.40;;;15.40;99.90;;;;;;4971037;28;20412;-75
2022/11/01 02:45:35;;;;;;;3.95;2.80;;;15.40;99.90;;;;;;4970015;28;20467;-73
2022/11/01 02:48:02;;;;;;;7.75;4.00;;;15.40;99.90;;;;;;4971492;28;20396;-75
2022/11/01 02:50:44;;;;;;;6.45;3.22;;;15.30;99.90;;;;;;4971406;28;20824;-74
2022/11/01 02:53:10;;;;;;;6.70;3.42;;;15.20;99.90;;;;;;4970514;28;20392;-73
2022/11/01 02:55:36;;;;;;;7.35;3.80;;;14.90;99.90;;;;;;4971049;28;20404;-74
2022/11/01 02:58:12;;;;;;;5.30;2.67;;;14.90;99.90;;;;;;4971339;28;20420;-73
2022/11/01 03:00:38;;;;;;;6.13;3.15;;;15.10;99.90;;;;;;4971510;28;20384;-74
2022/11/01 03:03:03;;;;;;;3.97;2.30;;;15.00;99.90;;;;;;4971111;28;20471;-74
2022/11/01 03:05:33;;;;;;;3.10;2.30;;;14.80;99.90;;;;;;4971454;28;20833;-73
2022/11/01 03:08:08;;;;;;;2.92;2.40;;;14.80;99.90;;;;;;4970992;28;20388;-73
2022/11/01 03:11:02;;;;;;;3.78;2.40;;;14.80;99.90;;;;;;4971188;28;20388;-74
2022/11/01 03:13:51;;;;;;;2.53;1.55;;;14.90;99.90;;;;;;4970811;28;20391;-73
2022/11/01 03:16:19;;;;;;;3.63;1.70;;;15.20;99.90;;;;;;4971039;28;20391;-74
2022/11/01 03:19:05;;;;;;;1.70;1.40;;;15.40;99.90;;;;;;4970985;28;20814;-74
2022/11/01 03:21:43;;;;;;;2.33;1.50;;;15.40;99.90;;;;;;4971047;28;20400;-74
2022/11/01 03:24:25;;;;;;;1.90;1.48;;;15.40;99.90;;;;;;4985595;28;20395;-74
2022/11/01 03:27:06;;;;;;;2.40;1.58;;;15.40;99.90;;;;;;4969387;28;20478;-74
2022/11/01 03:29:33;;;;;;;1.95;1.80;;;15.30;99.90;;;;;;4970925;28;20392;-74
2022/11/01 03:32:01;;;;;;;1.50;1.40;;;15.50;99.90;;;;;;4971082;28;20731;-74
2022/11/01 03:34:28;;;;;;;2.30;1.60;;;15.60;99.90;;;;;;4970697;28;20389;-74
2022/11/01 03:37:00;;;;;;;1.70;1.40;;;15.40;99.90;;;;;;4969417;28;20495;-74
2022/11/01 03:39:34;;;;;;;1.45;1.35;;;15.40;99.90;;;;;;4970747;28;20399;-73
2022/11/01 03:42:07;;;;;;;1.70;1.30;;;15.70;99.90;;;;;;4970444;28;20386;-74
2022/11/01 03:44:37;;;;;;;2.67;1.40;;;15.70;99.90;;;;;;4969372;28;20403;-74
2022/11/01 03:47:03;;;;;;;2.35;1.75;;;15.70;99.90;;;;;;4970814;28;20403;-75
2022/11/01 03:49:29;;;;;;;1.27;1.17;;;15.50;99.90;;;;;;4970667;28;20388;-74
2022/11/01 03:51:54;;;;;;;2.70;1.53;;;15.40;99.90;;;;;;4970978;28;20392;-74
2022/11/01 03:54:20;;;;;;;1.75;1.30;;;15.30;99.90;;;;;;4970668;28;20399;-74
2022/11/01 03:56:45;;;;;;;2.58;1.77;;;15.20;99.90;;;;;;4970714;28;20414;-73
2022/11/01 03:59:11;;;;;;;2.10;1.40;;;15.10;99.90;;;;;;4970678;28;20395;-75
2022/11/01 04:01:37;;;;;;;1.90;1.70;;;15.10;99.90;;;;;;4970763;28;20388;-75
2022/11/01 04:04:02;;;;;;;3.70;2.10;;;15.00;99.90;;;;;;4972282;28;20395;-75
2022/11/01 04:06:28;;;;;;;3.58;2.15;;;14.90;99.90;;;;;;4974212;28;20432;-75
2022/11/01 04:08:53;;;;;;;3.60;1.77;;;14.80;99.90;;;;;;4974199;28;20519;-76
2022/11/01 04:11:19;;;;;;;3.60;1.93;;;14.80;99.90;;;;;;4974387;28;20437;-75
2022/11/01 04:13:46;;;;;;;4.10;2.60;;;14.90;99.90;;;;;;4973970;28;20396;-76
2022/11/01 04:21:41;;;;;;;2.58;2.10;;;14.70;99.90;;;;;;4983620;28;20394;-76
2022/11/01 04:24:08;;;;;;;3.00;2.15;;;14.80;99.90;;;;;;4969268;28;20392;-77
2022/11/01 04:26:33;;;;;;;3.72;1.85;;;14.90;99.90;;;;;;4953347;29;20397;-77
2022/11/01 04:28:59;;;;;;;2.95;2.00;;;14.80;99.90;;;;;;4954577;28;21044;-76
2022/11/01 04:31:28;;;;;;;2.90;1.60;;;14.90;99.90;;;;;;4953550;28;20380;-76
2022/11/01 04:33:55;;;;;;;2.80;1.80;;;14.80;99.90;;;;;;4954585;28;20390;-75
2022/11/01 04:36:21;;;;;;;2.95;1.75;;;14.90;99.90;;;;;;4954745;28;20394;-77
2022/11/01 04:38:52;;;;;;;3.93;1.70;;;14.90;99.90;;;;;;4953396;29;20459;-77
2022/11/01 04:41:18;;;;;;;3.35;1.90;;;14.70;99.90;;;;;;4952893;28;20422;-76
2022/11/01 04:43:45;;;;;;;2.58;1.80;;;14.70;99.90;;;;;;4954512;28;20784;-77
2022/11/01 04:46:11;;;;;;;2.63;1.58;;;14.80;99.90;;;;;;4953442;29;20760;-76
2022/11/01 04:48:36;;;;;;;4.50;1.50;;;14.70;99.90;;;;;;4955118;28;20446;-76
2022/11/01 04:51:02;;;;;;;4.37;1.80;;;14.70;99.90;;;;;;4954778;28;20894;-77
2022/11/01 04:53:28;;;;;;;4.20;2.00;;;14.60;99.90;;;;;;4952860;28;20386;-77
2022/11/01 04:55:54;;;;;;;2.58;1.48;;;14.60;99.90;;;;;;4954458;28;20468;-77
2022/11/01 04:58:19;;;;;;;2.27;1.60;;;14.70;99.90;;;;;;4954374;28;20417;-77
2022/11/01 05:00:45;;;;;;;3.17;1.50;;;14.70;99.90;;;;;;4954556;28;20397;-77
2022/11/01 05:03:11;;;;;;;1.92;1.50;;;14.70;99.90;;;;;;4954183;28;20413;-78
2022/11/01 05:05:38;;;;;;;2.85;1.40;;;14.70;99.90;;;;;;4956104;28;20381;-76
2022/11/01 05:08:08;;;;;;;1.48;1.30;;;14.80;99.90;;;;;;4955844;29;20406;-77
2022/11/01 05:10:36;;;;;;;2.72;1.27;;;14.70;99.90;;;;;;4956839;28;20757;-76
2022/11/01 05:13:01;;;;;;;2.75;1.20;;;14.70;99.90;;;;;;4956235;28;20405;-77
2022/11/01 05:15:27;;;;;;;1.67;1.40;;;14.70;99.90;;;;;;4969999;28;20386;-79
2022/11/01 05:17:52;;;;;;;2.10;1.20;;;14.60;99.90;;;;;;4954227;28;20500;-79
2022/11/01 05:20:19;;;;;;;1.20;1.10;;;14.50;99.90;;;;;;4954190;28;20389;-80
2022/11/01 05:22:44;;;;;;;1.35;1.25;;;14.50;99.90;;;;;;4973117;28;20399;-79
2022/11/01 05:25:10;;;;;;;1.80;1.27;;;14.50;99.90;;;;;;4973624;28;20384;-79
2022/11/01 05:27:36;;;;;;;1.70;1.33;;;14.50;99.90;;;;;;4973321;28;20483;-79
2022/11/01 05:30:03;;;;;;;0.90;0.80;;;14.40;99.90;;;;;;4972697;28;20468;-79
2022/11/01 05:32:28;;;;;;;1.83;1.00;;;14.40;99.90;;;;;;4967797;28;20432;-78
2022/11/01 05:34:54;;;;;;;1.53;0.93;;;14.40;99.90;;;;;;4972997;28;20427;-78
2022/11/01 05:37:19;;;;;;;1.20;0.70;;;14.40;99.90;;;;;;4971988;28;20835;-79
2022/11/01 05:39:45;;;;;;;2.00;0.73;;;14.40;99.90;;;;;;4973152;28;20388;-77
2022/11/01 05:42:10;;;;;;;1.80;0.80;;;14.40;99.90;;;;;;4972451;28;20454;-77
2022/11/01 05:44:36;;;;;;;0.80;0.40;;;14.60;99.90;;;;;;4972631;28;20388;-78
2022/11/01 05:47:03;;;;;;;1.20;0.70;;;14.70;99.90;;;;;;4972885;28;20878;-77
2022/11/01 05:49:28;;;;;;;1.60;0.60;;;14.60;99.90;;;;;;4987694;28;20392;-77
2022/11/01 05:51:54;;;;;;;1.27;0.68;;;14.50;99.90;;;;;;4972835;28;20821;-77
2022/11/01 05:54:20;;;;;;;0.90;0.50;;;14.60;99.90;;;;;;4972456;28;20399;-78
2022/11/01 05:56:45;;;;;;;1.00;0.60;;;14.50;99.90;;;;;;4972567;28;20522;-76
2022/11/01 05:59:11;;;;;;;1.10;0.50;;;14.60;99.90;;;;;;4972642;28;20403;-77
2022/11/01 06:01:36;;;;;;;0.70;0.60;;;14.60;99.90;;;;;;4972624;28;20782;-77
2022/11/01 06:04:02;;;;;;;1.90;0.60;;;14.50;99.90;;;;;;4970831;28;20819;-77
2022/11/01 06:06:28;;;;;;;0.70;0.50;;;14.50;99.90;;;;;;4971247;28;20973;-76
2022/11/01 06:08:57;;;;;;;0.50;0.40;;;14.30;99.90;;;;;;4972447;28;20528;-76
2022/11/01 06:11:25;;;;;;;0.63;0.50;;;14.50;99.90;;;;;;4972508;28;20415;-76
2022/11/01 06:13:54;;;;;;;1.27;0.50;;;14.50;99.90;;;;;;4970895;28;20392;-76
2022/11/01 06:16:20;;;;;;;0.90;0.60;;;14.60;99.90;;;;;;4972185;28;20483;-76
2022/11/01 06:18:46;;;;;;;1.50;0.50;;;14.50;99.90;;;;;;4972274;28;20504;-76
2022/11/01 06:21:11;;;;;;;0.60;0.50;;;14.40;99.90;;;;;;4972251;28;20524;-76
2022/11/01 06:23:37;;;;;;;1.80;0.60;;;14.40;99.90;;;;;;4972018;28;20391;-76
2022/11/01 06:26:03;;;;;;;0.50;0.40;;;14.30;99.90;;;;;;4971940;28;20392;-76
2022/11/01 06:28:29;;;;;;;1.17;0.60;;;14.20;99.90;;;;;;4971498;28;20450;-76
2022/11/01 06:30:54;;;;;;;0.90;0.50;;;14.20;99.90;;;;;;4971977;28;20424;-75
2022/11/01 06:33:20;;;;;;;1.60;0.70;;;14.10;99.90;;;;;;4971701;28;20934;-75
2022/11/01 06:35:46;;;;;;;1.60;0.60;;;14.20;99.90;;;;;;4971880;28;20431;-76
2022/11/01 06:38:11;;;;;;;0.88;0.57;;;14.20;99.90;;;;;;4971962;28;20822;-76
2022/11/01 06:40:37;;;;;;;0.70;0.60;;;14.10;99.90;;;;;;4971922;28;20474;-75
2022/11/01 06:43:04;;;;;;;0.90;0.70;;;14.10;99.90;;;;;;4970999;28;21107;-76
2022/11/01 06:45:31;;;;;;;1.50;1.38;;;14.10;99.90;;;;;;4986649;28;20479;-76
2022/11/01 06:47:56;;;;;;;1.20;0.60;;;14.00;99.90;;;;;;4971817;28;20482;-76
2022/11/01 06:50:23;;;;;;;1.40;0.88;;;14.00;99.90;;;;;;4971890;28;20388;-76
2022/11/01 06:52:48;;;;;;;1.10;1.00;;;14.10;99.90;;;;;;4970480;28;20759;-76
2022/11/01 06:55:14;;;;;;;1.80;1.10;;;14.00;99.90;;;;;;4971562;28;20395;-75
2022/11/01 06:57:41;;;;;;;2.50;1.00;;;14.00;99.90;;;;;;4971613;28;20534;-76
2022/11/01 07:00:08;;;;;;;1.80;1.00;;;14.10;99.90;;;;;;4971578;28;20384;-75
2022/11/01 07:02:34;;;;;;;1.10;0.90;;;14.10;99.90;;;;;;4986189;28;20415;-77
2022/11/01 07:04:59;;;;;;;1.10;0.93;;;14.10;99.90;;;;;;4972036;28;20790;-75
2022/11/01 07:07:25;;;;;;;2.08;1.00;;;14.00;99.90;;;;;;4971495;28;20384;-76
2022/11/01 07:09:51;;;;;;;1.50;1.00;;;14.00;99.90;;;;;;4971802;28;20874;-76
2022/11/01 07:12:17;;;;;;;1.10;0.90;;;14.00;99.90;;;;;;4971432;28;20388;-75
2022/11/01 07:14:42;;;;;;;1.40;1.00;;;14.00;99.90;;;;;;4971225;28;20905;-76
2022/11/01 07:17:08;;;;;;;1.60;1.03;;;14.10;99.90;;;;;;4971327;28;21089;-75
2022/11/01 07:19:33;;;;;;;1.30;1.00;;;14.20;99.90;;;;;;4971535;28;20388;-76
2022/11/01 07:21:59;;;;;;;1.00;0.70;;;14.20;99.90;;;;;;4971411;28;20400;-77
2022/11/01 07:24:24;;;;;;;2.20;1.40;;;14.10;99.90;;;;;;4971294;28;20391;-76
2022/11/01 07:26:50;;;;;;;2.10;0.95;;;14.10;99.90;;;;;;4971237;28;20395;-75
2022/11/01 07:29:15;;;;;;;1.10;1.00;;;14.10;99.90;;;;;;4971410;28;20388;-75
2022/11/01 07:31:41;;;;;;;2.50;1.10;;;14.10;99.90;;;;;;4970034;28;20392;-76
2022/11/01 07:34:06;;;;;;;1.20;1.00;;;14.10;99.90;;;;;;4971092;28;20892;-76
2022/11/01 07:36:32;;;;;;;1.50;1.20;;;14.20;99.90;;;;;;4971239;28;20742;-76
2022/11/01 07:38:57;;;;;;;2.27;0.70;;;14.30;99.90;;;;;;4973229;28;20510;-76
2022/11/01 07:41:23;;;;;;;1.00;0.90;;;14.30;99.90;;;;;;4974507;28;20380;-76
2022/11/01 07:43:48;;;;;;;1.30;0.80;;;14.30;99.90;;;;;;4973548;28;20392;-77
2022/11/01 07:46:14;;;;;;;3.30;0.90;;;14.30;99.90;;;;;;4974933;28;20400;-75
2022/11/01 07:48:39;;;;;;;1.08;0.90;;;14.40;99.90;;;;;;4973743;28;20392;-76
2022/11/01 07:51:06;;;;;;;1.80;0.90;;;14.50;99.90;;;;;;4973858;28;20403;-76
2022/11/01 07:53:32;;;;;;;2.08;1.10;;;14.60;99.90;;;;;;4974526;28;20392;-76
2022/11/01 07:56:00;;;;;;;1.60;0.90;;;14.50;99.90;;;;;;4973445;28;20408;-76
2022/11/01 07:58:26;;;;;;;1.50;0.93;;;14.60;99.90;;;;;;4974848;28;20512;-75
2022/11/01 08:00:51;;;;;;;1.00;0.90;;;14.60;99.90;;;;;;4975007;28;20404;-76
2022/11/01 08:03:18;;;;;;;0.80;0.80;;;14.70;99.90;;;;;;4973038;28;20427;-76
2022/11/01 08:05:45;;;;;;;1.90;0.80;;;14.90;99.90;;;;;;4974078;28;20428;-75
2022/11/01 08:08:12;;;;;;;0.93;0.77;;;15.00;99.90;;;;;;4973196;28;20855;-76
2022/11/01 08:10:38;;;;;;;1.20;0.63;;;15.20;99.90;;;;;;4974486;28;20427;-75
2022/11/01 08:13:07;;;;;;;1.73;0.50;;;15.30;99.90;;;;;;4974139;28;20419;-75
2022/11/01 08:15:34;;;;;;;1.10;0.50;;;15.50;99.90;;;;;;4974666;28;20703;-74
2022/11/01 08:17:59;;;;;;;0.80;0.50;;;15.70;99.90;;;;;;4974388;28;20412;-74
2022/11/01 08:20:26;;;;;;;0.80;0.60;;;15.80;99.90;;;;;;4974231;28;20472;-74
2022/11/01 08:22:52;;;;;;;0.50;0.50;;;15.80;99.90;;;;;;4974033;28;20939;-74
2022/11/01 08:25:18;;;;;;;0.80;0.60;;;15.90;99.90;;;;;;4988117;28;20394;-73
2022/11/01 08:27:44;;;;;;;1.45;0.70;;;15.90;99.90;;;;;;4978379;28;20822;-73
2022/11/01 08:30:10;;;;;;;1.60;0.50;;;15.80;99.90;;;;;;4971079;28;20950;-73
2022/11/01 08:32:36;;;;;;;1.60;0.50;;;15.70;99.90;;;;;;4972810;28;20511;-74
2022/11/01 08:35:02;;;;;;;1.20;0.60;;;15.70;99.90;;;;;;4969445;28;20408;-73
2022/11/01 08:37:27;;;;;;;2.00;0.60;;;15.90;99.90;;;;;;4972220;28;20906;-73
2022/11/01 08:39:53;;;;;;;1.48;0.90;;;15.80;99.90;;;;;;4972197;28;20421;-74
2022/11/01 08:42:19;;;;;;;1.20;0.70;;;15.40;99.90;;;;;;4969088;28;20542;-74
2022/11/01 08:44:45;;;;;;;2.10;0.70;;;15.40;99.90;;;;;;4971422;28;20540;-75
2022/11/01 08:47:10;;;;;;;2.30;0.80;;;15.40;99.90;;;;;;4971696;28;20852;-74
2022/11/01 08:49:36;;;;;;;1.10;0.70;;;15.40;99.90;;;;;;4971470;28;20498;-73
2022/11/01 08:52:01;;;;;;;1.55;0.70;;;15.50;99.90;;;;;;4966705;28;20416;-74
2022/11/01 08:54:27;;;;;;;0.90;0.75;;;15.50;99.90;;;;;;4977408;28;20407;-74
2022/11/01 08:56:53;;;;;;;0.70;0.60;;;15.50;99.90;;;;;;4970827;28;20463;-73
2022/11/01 08:59:19;;;;;;;0.90;0.70;;;15.60;99.90;;;;;;4972691;28;20418;-74
2022/11/01 09:01:44;;;;;;;2.58;0.88;;;15.80;99.90;;;;;;4972029;28;20407;-74
2022/11/01 09:04:11;;;;;;;2.30;0.60;;;16.00;99.90;;;;;;4987186;28;20464;-74
2022/11/01 09:06:36;;;;;;;0.93;0.70;;;16.10;99.90;;;;;;4970212;28;20458;-73
2022/11/01 09:09:03;;;;;;;1.00;0.77;;;16.10;99.90;;;;;;4973585;28;20432;-74
2022/11/01 09:11:29;;;;;;;1.30;0.60;;;16.10;99.90;;;;;;4968012;28;20416;-74
2022/11/01 09:13:56;;;;;;;1.30;0.68;;;16.00;99.90;;;;;;4972846;28;20408;-73
2022/11/01 09:16:23;;;;;;;2.67;0.93;;;15.90;99.90;;;;;;4967737;28;20982;-74
2022/11/01 09:18:48;;;;;;;1.70;0.82;;;16.00;99.90;;;;;;4966859;28;20854;-74
2022/11/01 09:21:15;;;;;;;2.00;0.80;;;16.10;99.90;;;;;;4969092;28;20503;-73
2022/11/01 09:23:41;;;;;;;2.50;1.00;;;16.30;99.90;;;;;;4971891;28;20438;-74
2022/11/01 09:26:09;;;;;;;1.40;0.90;;;16.40;99.90;;;;;;4969978;28;20463;-74
2022/11/01 09:28:35;;;;;;;1.40;1.00;;;16.60;99.90;;;;;;4982537;28;20418;-74
2022/11/01 09:31:07;;;;;;;1.10;0.80;;;16.60;99.90;;;;;;4970972;28;21105;-73
2022/11/01 09:33:34;;;;;;;1.70;1.05;;;16.70;99.90;;;;;;4964779;28;20427;-74
2022/11/01 09:36:01;;;;;;;1.70;0.80;;;16.70;99.90;;;;;;4970111;28;20422;-73
2022/11/01 09:38:27;;;;;;;2.90;0.90;;;16.80;99.90;;;;;;4968625;28;20825;-74
2022/11/01 09:41:01;;;;;;;2.00;1.20;;;16.80;99.90;;;;;;4971486;28;20398;-73
2022/11/01 09:43:31;;;;;;;1.10;0.98;;;16.80;99.90;;;;;;4970625;28;20419;-73
2022/11/01 09:45:59;;;;;;;3.97;1.10;;;16.80;99.90;;;;;;4968445;28;20443;-73
2022/11/01 09:48:30;;;;;;;1.65;1.00;;;16.80;99.90;;;;;;4967860;28;20408;-73
2022/11/01 09:50:57;;;;;;;1.77;1.50;;;16.80;99.90;;;;;;4971442;28;20511;-74
2022/11/01 09:53:25;;;;;;;2.65;0.90;;;16.90;99.90;;;;;;4970780;28;20498;-73
2022/11/01 09:55:57;;;;;;;1.10;1.00;;;16.90;99.90;;;;;;4967696;28;20415;-73
2022/11/01 09:58:40;;;;;;;1.70;1.23;;;17.00;99.90;;;;;;4970197;28;20494;-73
2022/11/01 10:01:39;;;;;;;3.05;1.10;;;17.00;99.90;;;;;;4967799;28;20926;-73
2022/11/01 10:04:36;;;;;;;3.22;1.40;;;16.90;99.90;;;;;;4966494;28;20412;-75
2022/11/01 10:07:21;;;;;;;2.50;1.20;;;17.00;99.90;;;;;;4970856;28;20384;-73
2022/11/01 10:10:10;;;;;;;2.10;1.20;;;17.10;99.90;;;;;;4967757;28;20526;-73
2022/11/01 10:12:46;;;;;;;14.43;8.85;;;17.10;99.90;;;;;;4968527;28;20459;-74
2022/11/01 10:15:30;;;;;;;2.13;1.30;;;17.10;99.90;;;;;;4967054;28;20886;-73
2022/11/01 10:18:02;;;;;;;2.97;1.70;;;17.10;99.90;;;;;;4970984;28;20443;-73
2022/11/01 10:20:31;;;;;;;2.30;1.10;;;17.10;99.90;;;;;;4967372;28;20422;-74
2022/11/01 10:22:59;;;;;;;2.33;1.20;;;17.00;99.90;;;;;;4969661;28;20451;-74
2022/11/01 10:25:26;;;;;;;1.60;0.93;;;17.00;99.90;;;;;;4968797;28;20439;-74
2022/11/01 10:28:16;;;;;;;2.22;1.20;;;17.00;99.90;;;;;;4963006;28;20412;-74
2022/11/01 10:30:49;;;;;;;2.00;1.20;;;17.00;99.90;;;;;;4969186;28;20418;-74
2022/11/01 10:33:20;;;;;;;1.70;1.27;;;16.90;99.90;;;;;;4966732;28;20496;-74
2022/11/01 10:35:53;;;;;;;4.45;1.20;;;16.90;99.90;;;;;;4967589;28;20421;-74
2022/11/01 10:38:51;;;;;;;3.00;1.30;;;16.90;99.90;;;;;;4969618;28;20659;-74
2022/11/01 10:41:22;;;;;;;1.90;1.00;;;17.00;99.90;;;;;;4967027;28;20417;-74
2022/11/01 10:44:16;;;;;;;5.00;2.50;;;16.90;99.90;;;;;;4969143;28;20411;-74
2022/11/01 10:46:45;;;;;;;2.78;1.40;;;16.90;99.90;;;;;;4966834;28;20491;-74
2022/11/01 10:49:27;;;;;;;2.35;1.30;;;17.00;99.90;;;;;;4970564;28;20408;-74
2022/11/01 10:51:58;;;;;;;2.97;1.20;;;16.90;99.90;;;;;;4972207;28;20400;-74
2022/11/01 10:54:30;;;;;;;2.75;1.10;;;17.00;99.90;;;;;;4969542;28;20404;-73
2022/11/01 10:57:00;;;;;;;2.17;1.52;;;16.90;99.90;;;;;;4965664;28;20416;-72
2022/11/01 10:59:39;;;;;;;2.20;1.40;;;16.90;99.90;;;;;;4969997;28;21083;-73
2022/11/01 11:02:32;;;;;;;2.40;1.43;;;17.10;99.90;;;;;;4968687;28;20908;-73
2022/11/01 11:04:58;;;;;;;1.80;1.00;;;17.30;99.90;;;;;;4969699;28;20430;-75
2022/11/01 11:07:28;;;;;;;3.78;1.10;;;17.30;99.90;;;;;;4966630;28;20855;-74
2022/11/01 11:09:54;;;;;;;3.42;1.70;;;17.30;99.90;;;;;;4968554;28;20412;-75
2022/11/01 11:12:22;;;;;;;3.10;1.90;;;17.30;99.90;;;;;;4969895;28;20446;-74
2022/11/01 11:14:54;;;;;;;2.90;1.30;;;17.30;99.90;;;;;;4968153;28;20459;-74
2022/11/01 11:17:36;;;;;;;2.20;1.40;;;17.30;99.90;;;;;;4965694;28;20416;-75
2022/11/01 11:20:06;;;;;;;4.15;1.63;;;17.30;99.90;;;;;;4964754;28;20408;-74
2022/11/01 11:22:36;;;;;;;1.80;1.30;;;17.40;99.90;;;;;;4965404;28;20802;-75
2022/11/01 11:25:03;;;;;;;2.70;1.45;;;17.40;99.90;;;;;;4981507;28;20415;-75
2022/11/01 11:27:31;;;;;;;3.47;1.20;;;17.40;99.90;;;;;;4969639;28;20412;-75
2022/11/01 11:30:01;;;;;;;1.60;1.10;;;17.50;99.90;;;;;;4970661;28;20969;-75
2022/11/01 11:32:30;;;;;;;2.47;1.27;;;17.50;99.90;;;;;;4969804;28;20914;-75
2022/11/01 11:35:07;;;;;;;4.03;1.20;;;17.50;99.90;;;;;;4967980;28;20549;-73
2022/11/01 11:37:37;;;;;;;3.17;1.23;;;17.40;99.90;;;;;;4962329;28;20422;-74
2022/11/01 11:40:11;;;;;;;14.13;10.00;;;17.40;99.90;;;;;;4968299;28;20515;-74
2022/11/01 11:42:37;;;;;;;4.03;2.30;;;17.40;99.90;;;;;;4964040;28;20427;-74
2022/11/01 11:45:17;;;;;;;3.33;1.40;;;17.50;99.90;;;;;;4968415;28;20408;-75
2022/11/01 11:47:43;;;;;;;2.55;1.40;;;17.40;99.90;;;;;;4966662;28;20491;-73
2022/11/01 11:50:24;;;;;;;3.22;1.60;;;17.40;99.90;;;;;;4967109;28;20499;-73
2022/11/01 11:52:57;;;;;;;3.10;1.33;;;17.40;99.90;;;;;;4961936;28;20490;-73
2022/11/01 11:55:36;;;;;;;3.50;1.58;;;17.40;99.90;;;;;;4967197;28;20752;-73
2022/11/01 11:58:04;;;;;;;2.80;1.30;;;17.40;99.90;;;;;;4967844;28;20412;-73
2022/11/01 12:00:36;;;;;;;3.85;1.27;;;17.40;99.90;;;;;;4963423;28;20404;-73
2022/11/01 12:03:05;;;;;;;3.72;1.85;;;17.50;99.90;;;;;;4966894;28;20425;-74
2022/11/01 12:05:33;;;;;;;2.83;1.70;;;17.60;99.90;;;;;;4968392;28;20396;-73
2022/11/01 12:07:59;;;;;;;3.47;1.40;;;17.80;99.90;;;;;;4968346;28;20815;-69
2022/11/01 12:10:37;;;;;;;42.03;34.38;;;17.60;99.90;;;;;;4965954;28;20407;-71
2022/11/01 12:13:56;;;;;;;3.40;2.20;;;18.50;99.90;;;;;;4977264;28;21162;-74
2022/11/01 12:16:23;;;;;;;3.75;1.65;;;19.10;99.90;;;;;;4975028;28;20427;-72
2022/11/01 12:19:00;;;;;;;2.10;1.30;;;20.80;99.90;;;;;;4974621;28;20427;-73
2022/11/01 12:21:33;;;;;;;2.30;1.08;;;20.40;99.90;;;;;;4971723;28;20500;-72
2022/11/01 12:24:24;;;;;;;1.85;1.10;;;20.00;99.90;;;;;;4967458;28;20960;-73
2022/11/01 12:26:54;;;;;;;2.97;1.30;;;19.10;99.90;;;;;;4969870;28;20416;-72
2022/11/01 12:29:48;;;;;;;4.63;1.50;;;18.60;99.90;;;;;;4968698;28;20428;-73
2022/11/01 12:32:19;;;;;;;2.50;1.60;;;19.50;99.90;;;;;;4966906;28;20458;-72
2022/11/01 12:34:47;;;;;;;1.77;1.10;;;19.00;99.90;;;;;;4971710;28;20408;-72
2022/11/01 12:37:21;;;;;;;2.85;1.60;;;18.40;99.90;;;;;;4969432;28;20439;-70
2022/11/01 12:39:52;;;;;;;2.22;1.20;;;18.20;99.90;;;;;;4970159;28;20424;-71
2022/11/01 12:42:26;;;;;;;2.07;1.30;;;17.90;99.90;;;;;;4985268;28;20416;-72
2022/11/01 12:45:01;;;;;;;2.05;1.33;;;17.70;99.90;;;;;;4966171;28;20996;-72
2022/11/01 12:47:34;;;;;;;2.67;1.30;;;17.60;99.90;;;;;;4964717;28;20520;-71
2022/11/01 12:50:03;;;;;;;3.13;1.60;;;17.60;99.90;;;;;;4972426;28;20408;-71
2022/11/01 12:52:39;;;;;;;2.85;1.70;;;17.50;99.90;;;;;;4963595;28;20416;-69
2022/11/01 12:55:12;;;;;;;1.90;1.20;;;17.50;99.90;;;;;;4985610;28;20408;-69
2022/11/01 12:57:38;;;;;;;2.83;1.45;;;17.70;99.90;;;;;;4966831;28;20930;-70
2022/11/01 13:00:05;;;;;;;3.22;1.80;;;17.70;99.90;;;;;;4969147;28;20416;-71
2022/11/01 13:02:50;;;;;;;2.25;1.20;;;18.00;99.90;;;;;;4968520;28;20499;-70
2022/11/01 13:05:23;;;;;;;26.67;16.40;;;18.30;99.90;;;;;;4971090;28;20443;-73